Schedule Details

Flight Number: CPX237
Departure: March Air Reserve Base (KRIV) at N/A
Arrival: Washington Dulles International Airport (KIAD) at N/A
Route: TRM PKE J78 DRK J96 GUP J8 FTI MMB PER SGF J98 FAM J78 HVQ GIBBZ2


Current Weather Information
KRIV 192258Z AUTO 30003KT 10SM CLR 12/M08 A3005 RMK AO2 SLP178 T01151079
KIAD 192252Z 35004KT 10SM OVC200 03/M13 A3059 RMK AO2 SLP363 T00281133